Time;durP1;ratioP1;P1;durP2;ratioP2;P2;SDS_P1;SDS_P2;PMS_P1;PMS_P2;Temp;Humidity;BMP_temperature;BMP_pressure;BME280_temperature;BME280_humidity;BME280_pressure;Samples;Min_cycle;Max_cycle;Signal;HPM_P1;HPM_P2
2022/09/13 00:01:00;;;;;;;5.43;5.15;;;;;;;16.25;100.00;100677.53;6023764;23;20499;-71
2022/09/13 00:03:27;;;;;;;5.95;5.65;;;;;;;14.71;100.00;100443.91;6016509;23;20461;-73
2022/09/13 00:05:53;;;;;;;5.80;5.50;;;;;;;16.11;100.00;100686.53;6021033;23;20669;-71
2022/09/13 00:08:20;;;;;;;6.18;5.78;;;;;;;16.05;100.00;100676.41;6019084;23;20034;-73
2022/09/13 00:10:47;;;;;;;6.18;5.88;;;;;;;15.92;100.00;100658.81;6029913;23;20023;-71
2022/09/13 00:13:15;;;;;;;5.60;5.30;;;;;;;15.94;100.00;100662.19;6010560;23;20085;-73
2022/09/13 00:15:46;;;;;;;9.18;6.88;;;;;;;14.70;100.00;100450.13;6014707;23;20034;-72
2022/09/13 00:18:14;;;;;;;6.63;6.13;;;;;;;14.37;100.00;100403.22;6024558;23;20419;-74
2022/09/13 00:20:40;;;;;;;7.63;7.20;;;;;;;15.80;100.00;100643.00;6014404;23;20086;-74
2022/09/13 00:23:07;;;;;;;6.25;5.85;;;;;;;15.81;100.00;100639.41;6021325;23;20022;-72
2022/09/13 00:25:33;;;;;;;7.45;6.95;;;;;;;15.86;100.00;100635.44;6010860;23;20018;-72
2022/09/13 00:28:00;;;;;;;6.15;5.75;;;;;;;15.80;100.00;100611.25;6028583;23;20037;-73
2022/09/13 00:30:26;;;;;;;6.90;6.50;;;;;;;15.34;100.00;100522.94;6054275;23;20599;-73
2022/09/13 00:32:53;;;;;;;6.82;6.43;;;;;;;15.66;100.00;100584.00;6051349;23;20022;-73
2022/09/13 00:35:20;;;;;;;6.47;6.00;;;;;;;15.98;100.00;100662.78;6050118;23;20061;-74
2022/09/13 00:37:46;;;;;;;5.85;5.50;;;;;;;14.43;100.00;100381.66;6057849;23;20080;-74
2022/09/13 00:40:12;;;;;;;5.90;5.60;;;;;;;15.60;100.00;100578.34;6046242;23;20034;-70
2022/09/13 00:42:39;;;;;;;7.43;7.03;;;;;;;15.84;100.00;100613.53;6042647;23;20635;-70
2022/09/13 00:45:05;;;;;;;6.10;5.70;;;;;;;16.04;100.00;100635.03;6070605;23;20022;-71
2022/09/13 00:48:01;;;;;;;6.95;6.45;;;;;;;16.06;100.00;100638.41;6051182;23;20604;-74
2022/09/13 00:50:30;;;;;;;7.20;6.72;;;;;;;16.08;100.00;100631.19;6053172;23;20031;-73
2022/09/13 00:53:06;;;;;;;6.18;5.80;;;;;;;16.09;100.00;100630.19;6050846;23;20026;-71
2022/09/13 00:55:41;;;;;;;7.68;7.07;;;;;;;16.09;100.00;100624.91;6041331;23;20026;-71
2022/09/13 00:58:12;;;;;;;5.90;5.50;;;;;;;16.14;100.00;100628.06;6054387;23;20098;-71
2022/09/13 01:00:39;;;;;;;7.30;6.88;;;;;;;16.09;100.00;100632.84;6055239;23;20038;-72
2022/09/13 01:03:10;;;;;;;6.20;5.80;;;;;;;16.07;100.00;100621.53;6058258;23;20030;-75
2022/09/13 01:05:44;;;;;;;7.43;7.03;;;;;;;16.13;100.00;100607.81;6044260;23;20043;-72
2022/09/13 01:08:21;;;;;;;5.70;5.40;;;;;;;16.19;100.00;100614.47;6048397;23;20029;-72
2022/09/13 01:10:52;;;;;;;5.82;5.53;;;;;;;15.80;100.00;100551.25;6056378;23;20357;-72
2022/09/13 01:13:22;;;;;;;6.15;5.50;;;;;;;16.18;100.00;100616.28;6040407;23;20097;-72
2022/09/13 01:15:49;;;;;;;6.40;6.03;;;;;;;16.00;100.00;100594.69;6057590;23;21073;-73
2022/09/13 01:18:15;;;;;;;6.53;6.03;;;;;;;16.16;100.00;100626.13;6053254;23;20027;-74
2022/09/13 01:21:00;;;;;;;7.25;6.75;;;;;;;16.19;100.00;100610.00;6038215;23;20014;-73
2022/09/13 01:23:35;;;;;;;6.55;5.95;;;;;;;16.14;100.00;100606.88;6054857;23;20022;-71
2022/09/13 01:26:05;;;;;;;6.22;5.82;;;;;;;16.13;100.00;100611.31;6023282;23;20101;-72
2022/09/13 01:29:10;;;;;;;6.88;6.43;;;;;;;16.12;100.00;100604.34;6022512;23;20046;-71
2022/09/13 01:31:58;;;;;;;7.25;6.85;;;;;;;16.10;100.00;100606.25;6038567;23;20700;-72
2022/09/13 01:34:42;;;;;;;6.63;6.22;;;;;;;16.09;100.00;100606.38;6015713;23;20023;-72
2022/09/13 01:37:27;;;;;;;5.90;5.60;;;;;;;16.08;100.00;100600.25;6047152;23;20080;-72
2022/09/13 01:40:04;;;;;;;6.32;5.93;;;;;;;16.06;100.00;100601.34;6051283;23;20077;-74
2022/09/13 01:43:01;;;;;;;7.18;6.45;;;;;;;16.02;100.00;100595.44;6023915;23;20011;-72
2022/09/13 01:45:52;;;;;;;6.43;6.03;;;;;;;15.96;100.00;100585.31;5989062;23;20027;-73
2022/09/13 01:48:26;;;;;;;6.22;5.72;;;;;;;16.00;100.00;100593.88;6018282;23;20030;-72
2022/09/13 01:51:16;;;;;;;5.90;5.50;;;;;;;15.92;100.00;100582.06;6051265;23;20014;-71
2022/09/13 01:53:57;;;;;;;7.53;6.93;;;;;;;16.00;100.00;100585.94;6028391;23;20032;-73
2022/09/13 01:56:32;;;;;;;5.80;5.45;;;;;;;16.00;100.00;100585.94;6009373;23;20021;-73
2022/09/13 01:59:05;;;;;;;5.75;5.35;;;;;;;15.98;100.00;100587.84;6060369;23;20023;-73
2022/09/13 02:01:41;;;;;;;7.25;6.75;;;;;;;15.70;100.00;100547.56;6019247;23;20092;-72
2022/09/13 02:04:22;;;;;;;6.15;5.75;;;;;;;15.82;100.00;100567.84;6055702;23;20254;-71
2022/09/13 02:06:59;;;;;;;6.70;6.10;;;;;;;15.63;100.00;100533.94;6030511;23;20467;-72
2022/09/13 02:09:30;;;;;;;6.45;5.88;;;;;;;14.55;100.00;100379.91;6050948;23;20088;-73
2022/09/13 02:12:05;;;;;;;5.82;5.50;;;;;;;15.84;100.00;100570.38;6053229;23;20010;-72
2022/09/13 02:14:37;;;;;;;7.50;6.88;;;;;;;15.57;100.00;100534.41;6031365;23;20030;-72
2022/09/13 02:17:11;;;;;;;6.72;6.32;;;;;;;15.90;100.00;100570.75;6024169;23;20085;-73
2022/09/13 02:19:42;;;;;;;8.60;8.00;;;;;;;14.71;100.00;100396.34;6044077;23;20041;-72
2022/09/13 02:22:15;;;;;;;6.30;5.90;;;;;;;14.52;100.00;100337.91;6048380;23;20021;-74
2022/09/13 02:24:46;;;;;;;6.90;6.50;;;;;;;15.97;100.00;100576.41;6048083;23;20072;-72
2022/09/13 02:27:18;;;;;;;6.30;6.00;;;;;;;16.00;100.00;100567.41;6056553;23;20072;-73
2022/09/13 02:29:48;;;;;;;6.55;6.15;;;;;;;16.02;100.00;100568.13;5994832;23;20153;-71
2022/09/13 02:32:25;;;;;;;6.90;6.40;;;;;;;14.74;100.00;100351.19;6020378;23;20026;-71
2022/09/13 02:35:00;;;;;;;6.25;5.85;;;;;;;16.05;100.00;100559.94;6004768;23;20081;-71
2022/09/13 02:37:31;;;;;;;6.18;5.82;;;;;;;14.73;100.00;100338.09;6029479;23;20720;-70
2022/09/13 02:40:09;;;;;;;5.90;5.60;;;;;;;16.06;100.00;100559.81;6010769;23;20019;-71
2022/09/13 02:42:49;;;;;;;7.25;6.78;;;;;;;14.92;100.00;100382.47;6021465;23;20088;-71
2022/09/13 02:45:17;;;;;;;6.28;5.88;;;;;;;16.11;100.00;100557.63;6035049;23;20617;-73
2022/09/13 02:47:58;;;;;;;6.78;6.30;;;;;;;16.14;100.00;100564.53;6034232;23;20368;-72
2022/09/13 02:50:40;;;;;;;5.80;5.40;;;;;;;16.18;100.00;100558.03;6024292;23;20030;-73
2022/09/13 02:53:29;;;;;;;5.70;5.40;;;;;;;14.98;100.00;100371.44;6023139;23;20038;-73
2022/09/13 02:56:09;;;;;;;5.88;5.57;;;;;;;14.85;100.00;100338.97;6028782;23;20086;-71
2022/09/13 02:58:48;;;;;;;7.32;6.82;;;;;;;16.27;100.00;100549.34;6028439;23;20023;-72
2022/09/13 03:01:15;;;;;;;5.72;5.32;;;;;;;16.24;100.00;100546.94;6026803;23;20653;-71
2022/09/13 03:03:43;;;;;;;6.45;6.15;;;;;;;16.32;100.00;100560.44;6014071;23;20024;-72
2022/09/13 03:06:09;;;;;;;6.28;5.82;;;;;;;15.20;100.00;100372.47;6029770;23;20026;-72
2022/09/13 03:08:36;;;;;;;7.05;6.65;;;;;;;16.30;100.00;100562.34;6024456;23;20034;-72
2022/09/13 03:11:17;;;;;;;5.55;5.25;;;;;;;16.39;100.00;100575.84;6034273;23;20027;-72
2022/09/13 03:14:09;;;;;;;6.57;6.28;;;;;;;16.42;100.00;100570.31;5997211;23;20126;-72
2022/09/13 03:16:57;;;;;;;7.43;6.93;;;;;;;16.22;100.00;100540.09;6024253;23;20053;-72
2022/09/13 03:19:39;;;;;;;6.10;5.70;;;;;;;16.41;100.00;100563.31;6020892;23;20034;-73
2022/09/13 03:22:16;;;;;;;5.82;5.53;;;;;;;16.40;100.00;100566.91;6034485;23;20077;-71
2022/09/13 03:25:02;;;;;;;6.55;6.15;;;;;;;16.37;100.00;100564.50;6018941;23;20675;-72
2022/09/13 03:27:51;;;;;;;6.78;6.38;;;;;;;16.05;100.00;100515.75;6039359;23;20109;-73
2022/09/13 03:30:18;;;;;;;5.70;5.40;;;;;;;14.94;100.00;100333.84;6052267;23;20040;-71
2022/09/13 03:33:02;;;;;;;5.80;5.50;;;;;;;15.19;100.00;100362.84;6025707;23;20022;-71
2022/09/13 03:35:36;;;;;;;6.90;6.43;;;;;;;16.31;100.00;100560.53;6051255;23;20628;-71
2022/09/13 03:38:10;;;;;;;7.05;5.70;;;;;;;16.28;100.00;100545.75;6064959;23;20593;-72
2022/09/13 03:40:44;;;;;;;7.22;6.82;;;;;;;14.94;100.00;100370.84;6033657;23;20410;-73
2022/09/13 03:43:34;;;;;;;5.93;5.53;;;;;;;16.12;100.00;100524.91;6043901;23;20018;-72
2022/09/13 03:46:10;;;;;;;6.05;5.75;;;;;;;16.18;100.00;100533.31;6047922;23;20082;-74
2022/09/13 03:48:39;;;;;;;9.27;6.35;;;;;;;15.74;100.00;100472.34;6052664;23;20517;-72
2022/09/13 03:51:07;;;;;;;5.70;5.20;;;;;;;16.14;100.00;100535.41;6056656;23;20607;-72
2022/09/13 03:53:38;;;;;;;8.20;7.50;;;;;;;15.82;100.00;100480.50;6047604;23;20096;-73
2022/09/13 03:56:16;;;;;;;5.80;5.50;;;;;;;16.01;100.00;100539.94;6043936;23;20030;-71
2022/09/13 03:58:42;;;;;;;6.85;6.45;;;;;;;14.64;100.00;100284.19;6020998;23;20083;-72
2022/09/13 04:01:09;;;;;;;6.22;5.75;;;;;;;16.07;100.00;100516.47;6039555;23;20404;-71
2022/09/13 04:03:36;;;;;;;7.57;7.10;;;;;;;15.87;100.00;100480.97;6044166;23;20026;-70
2022/09/13 04:06:03;;;;;;;5.30;5.00;;;;;;;15.86;100.00;100476.66;6067495;23;20109;-71
2022/09/13 04:08:31;;;;;;;7.00;6.57;;;;;;;16.09;100.00;100519.00;6043826;23;20042;-72
2022/09/13 04:10:58;;;;;;;5.50;5.20;;;;;;;16.17;100.00;100532.50;6051619;23;20499;-74
2022/09/13 04:13:24;;;;;;;6.10;5.70;;;;;;;14.84;100.00;100319.66;6046733;23;20788;-72
2022/09/13 04:15:51;;;;;;;6.25;5.75;;;;;;;16.07;100.00;100516.47;6045045;23;20034;-71
2022/09/13 04:18:17;;;;;;;6.07;5.68;;;;;;;16.19;100.00;100535.03;6047944;23;20018;-71
2022/09/13 04:20:52;;;;;;;6.35;5.75;;;;;;;16.18;100.00;100526.25;6042298;23;20072;-71
2022/09/13 04:23:19;;;;;;;5.97;5.57;;;;;;;14.84;100.00;100317.00;6022033;23;20632;-72
2022/09/13 04:25:45;;;;;;;7.03;6.63;;;;;;;16.16;100.00;100528.19;6053355;23;20014;-72
2022/09/13 04:28:12;;;;;;;5.82;5.50;;;;;;;16.04;100.00;100506.16;6056698;23;20019;-72
2022/09/13 04:30:38;;;;;;;7.35;6.85;;;;;;;16.16;100.00;100522.88;6037132;23;20014;-72
2022/09/13 04:33:08;;;;;;;6.18;5.78;;;;;;;16.14;100.00;100519.50;6041674;23;20629;-73
2022/09/13 04:35:34;;;;;;;8.02;7.43;;;;;;;16.06;100.00;100508.69;6046884;23;20487;-72
2022/09/13 04:38:01;;;;;;;5.78;5.47;;;;;;;16.10;100.00;100533.94;6070448;23;20610;-74
2022/09/13 04:40:28;;;;;;;9.23;6.25;;;;;;;16.10;100.00;100521.53;6046769;23;20018;-72
2022/09/13 04:42:54;;;;;;;5.97;5.57;;;;;;;16.08;100.00;100518.19;6053965;23;20114;-72
2022/09/13 04:45:21;;;;;;;5.93;5.57;;;;;;;15.20;100.00;100397.09;6042774;23;20022;-72
2022/09/13 04:47:52;;;;;;;6.25;5.90;;;;;;;16.10;100.00;100529.50;6038410;23;20025;-72
2022/09/13 04:50:20;;;;;;;5.95;5.63;;;;;;;16.04;100.00;100523.84;6047760;23;20091;-74
2022/09/13 04:52:46;;;;;;;7.57;6.93;;;;;;;16.04;100.00;100539.72;6051826;23;20011;-72
2022/09/13 04:55:13;;;;;;;6.93;6.43;;;;;;;15.86;100.00;100521.66;6043718;23;20026;-71
2022/09/13 04:57:40;;;;;;;7.40;6.90;;;;;;;16.00;100.00;100541.75;6049553;23;20096;-71
2022/09/13 05:00:07;;;;;;;5.80;5.50;;;;;;;16.01;100.00;100540.78;6041976;23;20033;-71
2022/09/13 05:02:34;;;;;;;8.02;7.43;;;;;;;15.72;100.00;100496.25;6048043;23;20042;-75
2022/09/13 05:05:00;;;;;;;6.25;5.78;;;;;;;16.01;100.00;100545.25;6045434;23;20449;-73
2022/09/13 05:07:26;;;;;;;6.38;5.97;;;;;;;15.68;100.00;100494.78;6062079;23;20022;-74
2022/09/13 05:09:53;;;;;;;6.32;5.93;;;;;;;15.92;100.00;100530.94;6047453;23;20463;-72
2022/09/13 05:12:19;;;;;;;6.90;6.40;;;;;;;16.01;100.00;100539.94;6050780;23;20025;-72
2022/09/13 05:14:45;;;;;;;6.15;5.72;;;;;;;16.05;100.00;100528.16;6034166;23;20011;-73
2022/09/13 05:17:12;;;;;;;6.30;5.90;;;;;;;16.06;100.00;100529.84;6056296;23;20088;-73
2022/09/13 05:19:38;;;;;;;7.85;7.45;;;;;;;16.07;100.00;100518.28;6041608;23;20010;-75
2022/09/13 05:22:05;;;;;;;6.63;6.20;;;;;;;16.08;100.00;100520.00;6052115;23;20022;-69
2022/09/13 05:24:32;;;;;;;7.25;6.78;;;;;;;15.91;100.00;100498.31;6046177;23;20782;-69
2022/09/13 05:26:58;;;;;;;7.05;6.30;;;;;;;16.07;100.00;100528.88;6051421;23;20085;-71
2022/09/13 05:29:24;;;;;;;6.70;6.22;;;;;;;15.55;100.00;100447.28;6048240;23;20546;-71
2022/09/13 05:31:51;;;;;;;6.53;6.07;;;;;;;15.81;100.00;100497.34;6026616;23;20022;-72
2022/09/13 05:34:18;;;;;;;6.80;6.30;;;;;;;16.08;100.00;100533.22;6045386;23;20018;-70
2022/09/13 05:36:44;;;;;;;6.70;6.30;;;;;;;16.07;100.00;100532.38;6042907;23;20030;-69
2022/09/13 05:39:20;;;;;;;6.63;6.22;;;;;;;14.92;100.00;100356.91;6062558;23;20054;-70
2022/09/13 05:42:07;;;;;;;6.20;5.82;;;;;;;16.01;100.00;100514.31;6079891;23;20081;-71
2022/09/13 05:44:33;;;;;;;7.18;6.68;;;;;;;16.14;100.00;100532.75;6054406;23;20014;-72
2022/09/13 05:46:59;;;;;;;5.78;5.47;;;;;;;16.19;100.00;100533.22;6057245;23;20108;-73
2022/09/13 05:49:26;;;;;;;6.68;6.28;;;;;;;14.89;100.00;100304.31;6038567;23;20530;-71
2022/09/13 05:51:52;;;;;;;8.20;6.65;;;;;;;16.23;100.00;100520.59;6026652;23;21623;-70
2022/09/13 05:54:19;;;;;;;7.70;6.43;;;;;;;16.31;100.00;100532.25;6041824;23;20038;-70
2022/09/13 05:56:45;;;;;;;6.97;6.50;;;;;;;16.36;100.00;100531.91;6058121;23;20021;-68
2022/09/13 05:59:13;;;;;;;7.13;6.53;;;;;;;16.40;100.00;100529.81;6061937;23;20022;-70
2022/09/13 06:01:40;;;;;;;7.72;7.22;;;;;;;15.97;100.00;100454.63;6041789;23;20026;-69
2022/09/13 06:04:07;;;;;;;6.40;5.95;;;;;;;16.42;100.00;100518.16;6058227;23;20024;-69
2022/09/13 06:06:34;;;;;;;8.20;7.35;;;;;;;15.88;100.00;100418.34;6022903;23;20027;-70
2022/09/13 06:09:01;;;;;;;7.35;6.85;;;;;;;15.27;100.00;100320.78;6054203;23;20526;-72
2022/09/13 06:11:27;;;;;;;6.45;5.97;;;;;;;16.53;100.00;100526.06;6058527;23;20030;-72
2022/09/13 06:13:54;;;;;;;6.40;5.90;;;;;;;15.28;100.00;100319.84;6040514;23;20107;-70
2022/09/13 06:16:20;;;;;;;7.03;6.43;;;;;;;15.91;100.00;100416.25;6049734;23;20451;-71
2022/09/13 06:18:47;;;;;;;6.43;6.03;;;;;;;16.79;100.00;100538.22;6036095;23;20021;-69
2022/09/13 06:21:17;;;;;;;8.48;7.75;;;;;;;16.82;100.00;100524.72;6054239;23;20022;-69
2022/09/13 06:23:45;;;;;;;7.45;6.82;;;;;;;16.97;100.00;100531.44;6051152;23;20733;-71
2022/09/13 06:26:13;;;;;;;6.32;5.82;;;;;;;16.98;100.00;100538.44;6053702;23;20022;-70
2022/09/13 06:28:41;;;;;;;8.20;7.65;;;;;;;16.98;100.00;100540.22;6050994;23;20088;-73
2022/09/13 06:31:10;;;;;;;8.77;6.03;;;;;;;17.03;100.00;100532.75;6044134;23;20026;-73
2022/09/13 06:33:38;;;;;;;7.18;6.68;;;;;;;17.05;100.00;100536.94;6034382;23;20022;-72
2022/09/13 06:36:08;;;;;;;6.70;6.22;;;;;;;17.05;100.00;100530.81;6056478;23;20030;-70
2022/09/13 06:38:34;;;;;;;8.07;7.50;;;;;;;17.11;100.00;100543.56;6047530;23;20085;-71
2022/09/13 06:41:11;;;;;;;6.32;5.93;;;;;;;17.19;100.00;100537.63;6050690;23;20072;-71
2022/09/13 06:43:38;;;;;;;6.60;6.20;;;;;;;17.15;100.00;100519.31;6060811;23;20026;-70
2022/09/13 06:46:10;;;;;;;9.00;6.50;;;;;;;17.37;100.00;100530.78;6060056;23;20073;-71
2022/09/13 06:48:40;;;;;;;6.53;6.03;;;;;;;17.29;100.00;100488.16;6047066;23;20077;-70
2022/09/13 06:51:14;;;;;;;6.15;5.75;;;;;;;17.60;100.00;100517.41;6059461;23;20026;-71
2022/09/13 06:53:41;;;;;;;8.05;7.35;;;;;;;17.31;100.00;100471.13;6050944;23;20037;-70
2022/09/13 06:56:13;;;;;;;8.63;5.68;;;;;;;17.57;100.00;100515.03;6057085;23;20102;-71
2022/09/13 06:58:41;;;;;;;7.68;7.18;;;;;;;17.48;100.00;100506.88;6056541;23;20025;-70
2022/09/13 07:01:10;;;;;;;6.47;6.07;;;;;;;17.68;100.00;100512.28;6041637;23;20096;-70
2022/09/13 07:03:42;;;;;;;7.63;7.22;;;;;;;17.79;100.00;100506.91;6014851;23;20088;-70
2022/09/13 07:06:15;;;;;;;6.72;6.22;;;;;;;17.87;100.00;100512.44;6047723;23;20091;-71
2022/09/13 07:08:49;;;;;;;7.90;7.35;;;;;;;17.89;100.00;100510.47;6049658;23;20023;-70
2022/09/13 07:11:17;;;;;;;8.88;6.43;;;;;;;18.02;100.00;100525.34;6051937;23;20011;-71
2022/09/13 07:13:51;;;;;;;6.13;5.75;;;;;;;18.17;100.00;100520.53;6036921;23;20084;-70
2022/09/13 07:16:20;;;;;;;7.40;6.32;;;;;;;18.18;100.00;100512.44;6052048;23;20026;-70
2022/09/13 07:18:54;;;;;;;7.13;6.53;;;;;;;18.31;100.00;100518.34;6034733;23;20010;-70
2022/09/13 07:21:22;;;;;;;6.10;5.78;;;;;;;18.41;100.00;100513.06;6047521;23;20026;-69
2022/09/13 07:23:50;;;;;;;6.75;6.35;;;;;;;18.53;100.00;100508.50;6043773;23;20042;-70
2022/09/13 07:26:16;;;;;;;6.10;5.80;;;;;;;18.63;100.00;100512.00;6050372;23;20591;-70
2022/09/13 07:28:45;;;;;;;8.15;7.65;;;;;;;18.77;100.00;100515.25;6051771;23;20046;-71
2022/09/13 07:31:19;;;;;;;6.43;5.95;;;;;;;18.86;100.00;100535.72;6040407;23;20038;-71
2022/09/13 07:33:47;;;;;;;7.05;6.30;;;;;;;18.88;100.00;100510.69;6046487;23;20017;-70
2022/09/13 07:36:13;;;;;;;6.60;6.10;;;;;;;19.08;100.00;100519.53;6062213;23;20026;-69
2022/09/13 07:38:43;;;;;;;8.35;7.65;;;;;;;19.12;100.00;100520.06;6043878;23;20107;-69
2022/09/13 07:41:12;;;;;;;7.43;6.82;;;;;;;19.28;100.00;100519.50;6072724;23;20041;-69
2022/09/13 07:43:39;;;;;;;7.53;7.03;;;;;;;19.04;100.00;100493.31;6038130;23;20738;-69
2022/09/13 07:46:11;;;;;;;6.82;6.32;;;;;;;18.14;100.00;100335.72;6050345;23;20018;-69
2022/09/13 07:48:40;;;;;;;7.97;7.47;;;;;;;18.38;100.00;100353.09;6049305;23;20033;-69
2022/09/13 07:51:31;;;;;;;6.30;5.95;;;;;;;19.51;100.00;100528.03;6041419;23;20109;-69
2022/09/13 07:53:59;;;;;;;6.35;5.85;;;;;;;19.56;100.00;100531.09;6032528;23;20018;-70
2022/09/13 07:56:31;;;;;;;6.82;6.32;;;;;;;18.69;100.00;100381.22;6045980;23;20351;-70
2022/09/13 07:59:00;;;;;;;7.68;7.25;;;;;;;19.93;100.00;100538.34;6044190;23;20038;-70
2022/09/13 08:01:35;;;;;;;6.68;6.18;;;;;;;20.06;100.00;100541.50;6064618;23;20100;-72
2022/09/13 08:04:05;;;;;;;7.32;6.68;;;;;;;20.21;100.00;100538.41;6047155;23;20022;-73
2022/09/13 08:06:33;;;;;;;7.88;7.10;;;;;;;19.85;97.75;100491.13;6047733;23;20034;-69
2022/09/13 08:09:01;;;;;;;6.32;5.93;;;;;;;20.28;96.82;100539.47;6053134;23;20027;-71
2022/09/13 08:11:33;;;;;;;7.35;6.75;;;;;;;20.43;96.28;100547.84;6054305;23;20146;-71
2022/09/13 08:14:01;;;;;;;6.70;6.20;;;;;;;20.50;95.43;100541.75;6060922;23;20023;-70
2022/09/13 08:16:29;;;;;;;7.10;6.60;;;;;;;20.51;95.62;100523.94;6058265;23;20026;-71
2022/09/13 08:18:57;;;;;;;6.70;6.20;;;;;;;20.69;92.44;100548.84;6048699;23;20015;-70
2022/09/13 08:21:25;;;;;;;6.40;6.00;;;;;;;20.95;92.58;100556.13;6070286;23;20116;-72
2022/09/13 08:23:58;;;;;;;6.22;5.93;;;;;;;21.10;91.68;100557.25;6018938;23;20067;-70
2022/09/13 08:26:29;;;;;;;6.30;5.90;;;;;;;19.62;90.44;100324.72;6065445;23;20030;-71
2022/09/13 08:28:57;;;;;;;7.05;6.53;;;;;;;20.88;89.70;100537.19;6064722;23;20014;-70
2022/09/13 08:31:25;;;;;;;6.68;6.28;;;;;;;20.75;88.57;100528.75;6049099;23;20026;-72
2022/09/13 08:33:52;;;;;;;6.55;6.15;;;;;;;19.99;88.77;100369.13;6060541;23;20646;-69
2022/09/13 08:36:22;;;;;;;6.28;5.90;;;;;;;20.07;88.65;100366.56;6050433;23;20042;-71
2022/09/13 08:38:51;;;;;;;7.13;6.53;;;;;;;21.31;88.94;100550.81;6060686;23;20173;-70
2022/09/13 08:41:34;;;;;;;6.57;6.18;;;;;;;21.17;88.38;100500.59;6045424;23;20034;-69
2022/09/13 08:44:17;;;;;;;6.85;6.28;;;;;;;21.60;86.54;100555.06;6026315;23;20065;-72
2022/09/13 08:46:45;;;;;;;6.88;6.38;;;;;;;21.34;84.71;100491.75;6048746;23;20709;-70
2022/09/13 08:49:20;;;;;;;7.15;6.65;;;;;;;21.95;80.76;100558.63;6033324;23;20034;-71
2022/09/13 08:51:50;;;;;;;7.07;6.63;;;;;;;22.05;79.49;100557.53;6047676;23;20463;-72
2022/09/13 08:54:18;;;;;;;6.65;6.25;;;;;;;21.89;79.28;100533.41;6044020;23;20615;-70
2022/09/13 08:57:05;;;;;;;6.78;6.38;;;;;;;22.16;81.24;100548.41;6047199;23;20030;-71
2022/09/13 08:59:46;;;;;;;6.47;6.07;;;;;;;22.22;81.39;100552.28;6041862;23;20030;-71
2022/09/13 09:02:29;;;;;;;6.00;5.70;;;;;;;20.73;79.62;100325.38;6040464;23;20023;-73
2022/09/13 09:05:13;;;;;;;7.80;7.10;;;;;;;22.40;78.97;100549.56;6045978;23;20050;-70
2022/09/13 09:07:51;;;;;;;6.65;6.00;;;;;;;22.61;78.29;100552.66;6046489;23;20042;-70
2022/09/13 09:10:31;;;;;;;6.22;5.93;;;;;;;22.50;77.53;100550.25;6053451;23;20688;-70
2022/09/13 09:13:01;;;;;;;7.68;7.20;;;;;;;22.75;78.03;100553.84;6047391;23;20072;-70
2022/09/13 09:15:34;;;;;;;6.38;5.88;;;;;;;23.10;77.24;100549.28;6058544;23;20085;-70
2022/09/13 09:18:10;;;;;;;7.93;7.20;;;;;;;23.33;76.97;100548.63;6043149;23;20026;-70
2022/09/13 09:20:42;;;;;;;6.28;5.90;;;;;;;23.45;75.85;100525.84;6052961;23;20027;-70
2022/09/13 09:23:18;;;;;;;6.60;6.13;;;;;;;23.72;74.99;100535.38;6048539;23;20607;-71
2022/09/13 09:25:51;;;;;;;7.18;6.68;;;;;;;22.17;73.76;100252.53;6045804;23;20503;-70
2022/09/13 09:28:18;;;;;;;6.63;5.97;;;;;;;23.79;73.26;100527.50;6041058;23;20632;-71
2022/09/13 09:31:12;;;;;;;6.43;6.03;;;;;;;24.02;72.14;100536.50;6060631;23;20097;-71
2022/09/13 09:33:44;;;;;;;6.68;6.22;;;;;;;24.28;72.59;100544.28;6047366;23;20034;-70
2022/09/13 09:36:27;;;;;;;6.63;6.13;;;;;;;23.17;73.05;100370.91;6063411;23;20049;-70
2022/09/13 09:38:55;;;;;;;7.47;6.97;;;;;;;24.53;72.25;100540.69;6050885;23;20029;-70
2022/09/13 09:41:34;;;;;;;6.65;6.20;;;;;;;23.43;70.92;100343.06;6064631;23;20056;-71
2022/09/13 09:44:18;;;;;;;8.00;7.50;;;;;;;24.55;67.82;100527.94;6054699;23;20034;-71
2022/09/13 09:46:59;;;;;;;8.45;6.75;;;;;;;24.11;69.51;100534.63;6057405;23;20409;-71
2022/09/13 09:52:27;;;;;;;6.60;6.20;;;;;;;24.22;71.21;100528.91;6066177;23;20030;-73
2022/09/13 09:54:58;;;;;;;7.55;7.05;;;;;;;24.49;71.80;100553.59;6041335;23;20498;-70
2022/09/13 09:57:52;;;;;;;6.82;6.28;;;;;;;24.81;71.00;100551.78;6033952;23;20030;-70
2022/09/13 10:00:22;;;;;;;6.95;6.35;;;;;;;24.84;66.45;100541.53;6052645;23;20096;-72
2022/09/13 10:02:52;;;;;;;7.28;6.40;;;;;;;24.59;67.63;100546.19;6060717;23;20072;-71
2022/09/13 10:05:21;;;;;;;6.88;6.28;;;;;;;24.89;68.05;100544.50;6060004;23;20041;-70
2022/09/13 10:07:54;;;;;;;7.15;6.57;;;;;;;24.09;67.48;100392.72;6043709;23;20069;-71
2022/09/13 10:10:30;;;;;;;9.88;6.40;;;;;;;25.05;66.89;100542.75;6030569;23;20026;-71
2022/09/13 10:12:58;;;;;;;7.22;6.82;;;;;;;24.94;67.51;100546.69;6047068;23;20010;-71
2022/09/13 10:15:31;;;;;;;6.50;6.00;;;;;;;25.25;66.60;100538.59;6052350;23;20679;-71
2022/09/13 10:18:02;;;;;;;7.40;7.00;;;;;;;25.51;65.54;100537.38;6033628;23;20014;-72
2022/09/13 10:20:30;;;;;;;11.60;6.70;;;;;;;25.22;65.63;100549.69;6051459;23;20019;-71
2022/09/13 10:23:18;;;;;;;7.95;7.35;;;;;;;24.95;65.92;100551.03;6068831;23;20016;-70
2022/09/13 10:26:01;;;;;;;6.80;6.40;;;;;;;24.33;66.74;100409.66;6048483;23;20018;-71
2022/09/13 10:28:31;;;;;;;6.45;6.05;;;;;;;25.32;65.48;100549.47;6054961;23;20071;-71
2022/09/13 10:31:07;;;;;;;7.60;6.97;;;;;;;25.49;64.96;100499.09;6057072;23;20015;-73
2022/09/13 10:33:52;;;;;;;6.75;6.25;;;;;;;26.13;63.54;100530.88;6026214;23;20026;-71
2022/09/13 10:36:33;;;;;;;6.70;6.20;;;;;;;26.04;65.68;100530.16;6053734;23;20026;-70
2022/09/13 10:39:20;;;;;;;6.90;6.40;;;;;;;25.99;63.81;100527.16;6053021;23;20613;-70
2022/09/13 10:42:01;;;;;;;7.82;7.22;;;;;;;26.04;61.47;100503.25;6053199;23;20030;-70
2022/09/13 10:44:44;;;;;;;6.78;6.20;;;;;;;26.14;61.98;100524.50;6055084;23;20022;-68
2022/09/13 10:47:38;;;;;;;7.10;6.38;;;;;;;26.12;64.35;100521.16;6042571;23;20046;-71
2022/09/13 10:50:23;;;;;;;6.68;6.18;;;;;;;26.00;60.46;100519.94;6043969;23;20083;-70
2022/09/13 10:52:53;;;;;;;7.90;7.40;;;;;;;25.36;61.89;100525.75;6049883;23;20273;-72
2022/09/13 10:55:27;;;;;;;6.22;5.85;;;;;;;25.39;63.31;100549.56;6062713;23;20022;-70
2022/09/13 10:58:00;;;;;;;7.78;7.22;;;;;;;25.41;63.56;100529.56;6057245;23;20014;-70
2022/09/13 11:00:45;;;;;;;7.00;6.40;;;;;;;25.27;64.78;100533.88;6032332;23;20034;-70
2022/09/13 11:03:39;;;;;;;7.45;6.93;;;;;;;25.27;65.76;100531.19;6057081;23;20030;-69
2022/09/13 11:06:06;;;;;;;7.43;7.03;;;;;;;25.05;67.62;100543.56;6042674;23;20158;-69
2022/09/13 11:08:46;;;;;;;6.60;6.15;;;;;;;25.35;67.07;100532.97;6060418;23;20018;-71
2022/09/13 11:11:26;;;;;;;6.55;6.13;;;;;;;25.52;66.53;100533.69;6048834;23;20022;-73
2022/09/13 11:14:27;;;;;;;8.23;7.72;;;;;;;25.51;63.84;100532.00;6053559;23;20234;-70
2022/09/13 11:17:16;;;;;;;8.10;7.60;;;;;;;25.16;66.46;100533.41;6056544;23;20010;-69
2022/09/13 11:19:45;;;;;;;6.25;5.95;;;;;;;25.57;66.31;100530.44;6050534;23;20085;-70
2022/09/13 11:22:33;;;;;;;6.40;6.00;;;;;;;25.82;66.57;100522.94;6060854;23;20018;-71
2022/09/13 11:25:12;;;;;;;7.65;7.15;;;;;;;26.11;64.41;100516.78;6048583;23;20021;-70
2022/09/13 11:28:18;;;;;;;6.90;6.40;;;;;;;25.84;63.48;100457.25;6049121;23;20011;-72
2022/09/13 11:31:15;;;;;;;6.55;6.15;;;;;;;26.32;63.39;100512.50;6064360;23;20036;-71
2022/09/13 11:33:52;;;;;;;6.72;6.32;;;;;;;26.02;62.26;100508.00;6049087;23;20010;-70
2022/09/13 11:36:43;;;;;;;6.15;5.85;;;;;;;26.34;63.03;100497.00;6031287;23;20543;-70
2022/09/13 11:39:16;;;;;;;6.78;6.28;;;;;;;26.21;61.76;100501.19;6053358;23;20056;-70
2022/09/13 11:41:48;;;;;;;;;;;;;;;26.43;60.44;100498.56;6060985;23;20100;-71
2022/09/13 11:44:45;;;;;;;6.60;6.20;;;;;;;26.32;61.94;100493.66;6064838;23;19981;-71
2022/09/13 11:47:43;;;;;;;11.05;6.78;;;;;;;26.19;62.01;100492.47;6050108;23;20022;-73
2022/09/13 11:50:21;;;;;;;6.72;6.32;;;;;;;26.41;59.97;100490.66;6059844;23;20717;-71